createdAt,value
2023-02-16T00:04:46.044Z,19.02
2023-02-16T00:09:47.558Z,20.98
2023-02-16T00:14:49.082Z,17.38
2023-02-16T00:19:50.600Z,22.63
2023-02-16T00:24:52.181Z,21.45
2023-02-16T00:29:53.745Z,19.10
2023-02-16T00:34:55.223Z,17.20
2023-02-16T00:39:56.663Z,18.33
2023-02-16T00:44:59.175Z,16.92
2023-02-16T00:50:00.799Z,15.90
2023-02-16T00:55:06.362Z,18.83
2023-02-16T01:00:17.447Z,16.23
2023-02-16T01:05:19.458Z,11.60
2023-02-16T01:10:21.198Z,19.50
2023-02-16T01:15:25.954Z,12.73
2023-02-16T01:20:28.550Z,18.20
2023-02-16T01:25:30.439Z,14.18
2023-02-16T01:30:32.167Z,16.77
2023-02-16T01:35:34.440Z,12.50
2023-02-16T01:40:41.187Z,11.70
2023-02-16T01:45:48.076Z,15.60
2023-02-16T01:50:59.301Z,12.45
2023-02-16T01:56:05.673Z,15.55
2023-02-16T02:01:41.480Z,12.77
2023-02-16T02:06:43.665Z,14.02
2023-02-16T02:11:58.106Z,9.70
2023-02-16T02:17:05.427Z,11.65
2023-02-16T02:22:29.948Z,13.60
2023-02-16T02:27:39.354Z,9.40
2023-02-16T02:32:58.675Z,12.77
2023-02-16T02:38:15.641Z,10.88
2023-02-16T02:43:38.512Z,12.55
2023-02-16T02:48:40.055Z,11.27
2023-02-16T02:53:47.576Z,9.45
2023-02-16T02:58:53.121Z,9.52
2023-02-16T03:03:58.015Z,12.07
2023-02-16T03:09:09.309Z,13.50
2023-02-16T03:14:24.820Z,10.48
2023-02-16T03:19:32.373Z,10.23
2023-02-16T03:24:34.259Z,13.02
2023-02-16T03:35:52.353Z,11.48
2023-02-16T03:40:54.361Z,8.52
2023-02-16T03:45:55.909Z,11.18
2023-02-16T03:50:57.455Z,11.75
2023-02-16T03:55:58.932Z,13.00
2023-02-16T04:01:00.667Z,9.95
2023-02-16T04:06:02.622Z,9.73
2023-02-16T04:11:04.515Z,13.38
2023-02-16T04:16:06.258Z,9.50
2023-02-16T04:21:07.707Z,12.90
2023-02-16T04:26:09.222Z,18.90
2023-02-16T04:31:10.744Z,10.65
2023-02-16T04:36:12.260Z,12.50
2023-02-16T04:41:13.765Z,14.15
2023-02-16T04:46:15.220Z,14.05
2023-02-16T04:51:16.785Z,19.83
2023-02-16T04:56:18.329Z,14.57
2023-02-16T05:01:26.187Z,10.07
2023-02-16T05:06:27.751Z,13.18
2023-02-16T05:11:29.254Z,11.88
2023-02-16T05:16:30.746Z,14.10
2023-02-16T05:21:32.285Z,11.48
2023-02-16T05:26:35.483Z,10.02
2023-02-16T05:31:37.003Z,13.73
2023-02-16T05:36:38.592Z,13.18
2023-02-16T05:41:40.500Z,11.63
2023-02-16T05:46:42.526Z,11.45
2023-02-16T05:51:44.304Z,14.07
2023-02-16T05:56:48.066Z,12.93
2023-02-16T06:01:52.140Z,11.43
2023-02-16T06:06:54.511Z,12.57
2023-02-16T06:11:55.956Z,11.60
2023-02-16T06:16:57.455Z,12.65
2023-02-16T06:21:58.975Z,31.67
2023-02-16T06:27:00.493Z,18.05
2023-02-16T06:32:02.200Z,18.20
2023-02-16T06:37:03.867Z,14.90
2023-02-16T06:42:05.431Z,13.52
2023-02-16T06:47:06.867Z,13.82
2023-02-16T06:52:08.336Z,22.88
2023-02-16T06:57:09.827Z,29.13
2023-02-16T07:02:11.487Z,23.58
2023-02-16T07:07:13.091Z,18.60
2023-02-16T07:12:14.618Z,16.77
2023-02-16T07:17:16.116Z,15.07
2023-02-16T07:22:17.631Z,14.60
2023-02-16T07:27:19.088Z,15.77
2023-02-16T07:32:20.560Z,15.52
2023-02-16T07:37:22.132Z,17.13
2023-02-16T07:42:23.625Z,16.35
2023-02-16T07:47:27.820Z,15.85
2023-02-16T07:52:29.331Z,17.65
2023-02-16T07:57:30.774Z,20.52
2023-02-16T08:02:32.345Z,18.13
2023-02-16T08:07:33.844Z,19.83
2023-02-16T08:12:35.378Z,15.98
2023-02-16T08:17:37.006Z,13.88
2023-02-16T08:22:38.475Z,14.32
2023-02-16T08:27:39.920Z,11.60
2023-02-16T08:32:41.373Z,14.55
2023-02-16T08:37:42.819Z,12.13
2023-02-16T08:42:44.304Z,12.10
2023-02-16T08:47:45.805Z,10.90
2023-02-16T08:52:47.256Z,11.00
2023-02-16T08:57:48.760Z,11.77
2023-02-16T09:02:50.286Z,10.98
2023-02-16T09:07:51.746Z,11.55
2023-02-16T09:12:53.327Z,9.52
2023-02-16T09:17:54.768Z,9.20
2023-02-16T09:22:56.333Z,11.32
2023-02-16T09:27:57.863Z,11.60
2023-02-16T09:33:00.007Z,9.23
2023-02-16T09:38:01.549Z,10.65
2023-02-16T09:43:18.003Z,10.20
2023-02-16T09:48:40.114Z,10.48
2023-02-16T09:53:43.472Z,15.02
2023-02-16T09:59:15.717Z,12.05
2023-02-16T10:04:36.717Z,11.77
2023-02-16T10:09:40.472Z,11.52
2023-02-16T10:14:49.767Z,12.38
2023-02-16T10:20:18.098Z,12.38
2023-02-16T10:25:32.022Z,10.95
2023-02-16T10:30:33.576Z,13.52
2023-02-16T10:35:45.545Z,11.95
2023-02-16T10:41:19.994Z,14.93
2023-02-16T10:46:46.908Z,13.27
2023-02-16T10:51:51.851Z,14.27
2023-02-16T10:57:00.548Z,13.57
2023-02-16T11:02:20.231Z,11.05
2023-02-16T11:07:24.745Z,14.45
2023-02-16T11:12:35.772Z,13.10
2023-02-16T11:17:48.865Z,13.00
2023-02-16T11:22:50.367Z,13.23
2023-02-16T11:27:57.889Z,13.35
2023-02-16T11:33:05.411Z,13.10
2023-02-16T11:38:21.933Z,13.20
2023-02-16T11:43:27.830Z,12.10
2023-02-16T11:48:32.283Z,11.45
2023-02-16T11:53:36.924Z,13.35
2023-02-16T11:58:39.484Z,11.20
2023-02-16T12:04:14.881Z,11.50
2023-02-16T12:09:29.031Z,12.32
2023-02-16T12:14:49.710Z,11.13
2023-02-16T12:20:20.800Z,10.88
2023-02-16T12:25:42.148Z,7.05
2023-02-16T12:31:12.955Z,7.30
2023-02-16T12:36:45.199Z,7.93
2023-02-16T12:41:52.819Z,7.20
2023-02-16T12:47:02.052Z,6.78
2023-02-16T12:52:11.774Z,8.30
2023-02-16T12:57:15.935Z,4.85
2023-02-16T13:02:24.121Z,6.25
2023-02-16T13:07:41.593Z,5.47
2023-02-16T13:13:00.745Z,5.20
2023-02-16T13:18:06.778Z,5.38
2023-02-16T13:23:30.108Z,3.63
2023-02-16T13:29:02.538Z,3.40
2023-02-16T13:34:28.308Z,3.00
2023-02-16T13:39:40.763Z,3.15
2023-02-16T13:44:48.372Z,4.82
2023-02-16T13:49:57.393Z,3.70
2023-02-16T13:55:02.065Z,6.50
2023-02-16T14:00:04.571Z,5.00
2023-02-16T14:05:24.262Z,3.90
2023-02-16T14:10:51.934Z,2.40
2023-02-16T14:15:56.020Z,5.20
2023-02-16T14:21:03.488Z,3.40
2023-02-16T14:26:06.873Z,3.47
2023-02-16T14:31:17.919Z,3.78
2023-02-16T14:36:22.588Z,5.03
2023-02-16T14:41:28.038Z,4.78
2023-02-16T14:46:35.779Z,4.85
2023-02-16T14:51:58.818Z,5.37
2023-02-16T14:57:07.191Z,6.63
2023-02-16T15:02:32.302Z,5.40
2023-02-16T15:07:33.832Z,4.80
2023-02-16T15:12:39.398Z,5.57
2023-02-16T15:17:45.092Z,3.97
2023-02-16T15:22:55.684Z,4.60
2023-02-16T15:28:00.232Z,5.82
2023-02-16T15:33:25.384Z,4.90
2023-02-16T15:38:32.451Z,5.65
2023-02-16T15:43:37.383Z,6.13
2023-02-16T15:48:39.250Z,7.15
2023-02-16T15:54:00.805Z,7.20
2023-02-16T15:59:14.532Z,5.22
2023-02-16T16:04:24.986Z,9.07
2023-02-16T16:09:32.378Z,9.50
2023-02-16T16:14:40.402Z,7.88
2023-02-16T16:19:42.447Z,8.38
2023-02-16T16:24:43.929Z,7.93
2023-02-16T16:29:47.381Z,6.72
2023-02-16T16:34:49.972Z,7.25
2023-02-16T16:40:01.164Z,6.78
2023-02-16T16:45:20.666Z,7.85
2023-02-16T16:50:39.649Z,7.68
2023-02-16T16:55:41.394Z,10.85
2023-02-16T17:00:42.928Z,8.32
2023-02-16T17:05:45.935Z,9.10
2023-02-16T17:10:47.511Z,10.57
2023-02-16T17:15:56.509Z,9.82
2023-02-16T17:20:58.317Z,9.23
2023-02-16T17:25:59.822Z,9.23
2023-02-16T17:31:01.346Z,8.75
2023-02-16T17:36:05.350Z,7.05
2023-02-16T17:41:07.162Z,8.48
2023-02-16T17:46:09.197Z,7.32
2023-02-16T17:51:15.773Z,10.23
2023-02-16T17:56:20.103Z,8.40
2023-02-16T18:01:22.358Z,7.43
2023-02-16T18:06:23.999Z,8.77
2023-02-16T18:11:26.206Z,8.35
2023-02-16T18:16:27.840Z,7.32
2023-02-16T18:21:29.347Z,9.43
2023-02-16T18:26:30.811Z,10.65
2023-02-16T18:31:32.415Z,11.60
2023-02-16T18:36:34.067Z,7.80
2023-02-16T18:41:36.068Z,8.02
2023-02-16T18:46:37.556Z,21.52
2023-02-16T18:51:39.087Z,10.30
2023-02-16T18:56:40.640Z,8.02
2023-02-16T19:01:42.276Z,5.57
2023-02-16T19:06:43.817Z,7.70
2023-02-16T19:11:45.428Z,7.53
2023-02-16T19:16:46.992Z,8.63
2023-02-16T19:21:48.559Z,7.85
2023-02-16T19:26:50.060Z,8.73
2023-02-16T19:31:51.628Z,6.97
2023-02-16T19:36:53.209Z,9.82
2023-02-16T19:41:54.668Z,7.82
2023-02-16T19:46:56.214Z,9.75
2023-02-16T19:51:57.749Z,9.90
2023-02-16T19:56:59.187Z,9.43
2023-02-16T20:02:02.002Z,8.45
2023-02-16T20:07:03.757Z,7.82
2023-02-16T20:12:05.781Z,8.43
2023-02-16T20:17:07.376Z,7.82
2023-02-16T20:22:08.910Z,7.13
2023-02-16T20:27:11.474Z,7.07
2023-02-16T20:32:13.012Z,6.97
2023-02-16T20:37:14.528Z,22.15
2023-02-16T20:42:16.048Z,6.88
2023-02-16T20:47:17.535Z,6.88
2023-02-16T20:52:19.071Z,6.80
2023-02-16T20:57:26.821Z,6.60
2023-02-16T21:02:28.713Z,5.35
2023-02-16T21:07:30.206Z,6.88
2023-02-16T21:12:31.782Z,7.10
2023-02-16T21:17:33.424Z,7.53
2023-02-16T21:22:34.997Z,9.63
2023-02-16T21:27:36.498Z,7.63
2023-02-16T21:32:37.951Z,6.95
2023-02-16T21:37:39.475Z,7.40
2023-02-16T21:42:40.918Z,8.23
2023-02-16T21:47:44.806Z,6.53
2023-02-16T21:52:46.279Z,7.20
2023-02-16T21:57:47.782Z,7.13
2023-02-16T22:02:49.309Z,5.72
2023-02-16T22:07:51.659Z,6.90
2023-02-16T22:12:53.777Z,7.03
2023-02-16T22:17:55.415Z,6.85
2023-02-16T22:22:57.052Z,6.90
2023-02-16T22:27:58.541Z,9.82
2023-02-16T22:33:00.047Z,7.28
2023-02-16T22:38:01.581Z,6.80
2023-02-16T22:43:03.047Z,7.32
2023-02-16T22:48:05.107Z,7.10
2023-02-16T22:53:06.597Z,6.53
2023-02-16T22:58:08.121Z,5.68
2023-02-16T23:03:09.609Z,6.53
2023-02-16T23:08:11.639Z,7.00
2023-02-16T23:13:13.105Z,8.40
2023-02-16T23:18:14.548Z,6.05
2023-02-16T23:23:16.137Z,6.32
2023-02-16T23:28:18.318Z,4.97
2023-02-16T23:33:19.767Z,4.22
2023-02-16T23:38:22.041Z,9.80
2023-02-16T23:43:23.699Z,5.65
2023-02-16T23:48:25.327Z,6.65
2023-02-16T23:53:28.125Z,6.22
2023-02-16T23:58:31.640Z,8.35
